Station Historical Data
Daily Summary for April 18, 2017 Units:  English    Metric   Both
« Previous Day
Next Day »
Daily Weekly Monthly Yearly Custom
  High: Low: Average:
Temperature: 80.6 °F 60.7 °F 68.2 °F
Dew Point: 64.1 °F 57.7 °F 60.4 °F
Humidity: 90% 52% 77%
Wind Speed: 2.0mph 0.0mph 0.2mph
Wind Gust: 5.0mph - -
Wind- - West
Pressure: 30.25 in 30.09 in -
Precipitation: 0.00 in    
Historical Graphs
 
 
Tabular Data for April 18, 2017
Time Temperature Dew Point Pressure Wind Wind Speed Wind Gust Humidity Rainfall Rate (Hourly) Conditions
00:00 65.2 °F 61.2 °F 30.11 in Calm     87% 0.00 in SCT
00:15 65.6 °F 61.3 °F 30.12 in Calm   1.0 mph 86% 0.00 in SCT
00:30 65.5 °F 60.9 °F 30.11 in Calm   1.0 mph 85% 0.00 in SCT
00:45 65.4 °F 60.8 °F 30.11 in Calm     85% 0.00 in SCT
01:00 65.1 °F 60.5 °F 30.11 in Calm     85% 0.00 in SCT
01:15 64.8 °F 60.2 °F 30.12 in Calm     85% 0.00 in SCT
01:30 64.6 °F 60.3 °F 30.11 in Calm     86% 0.00 in SCT
01:45 64.4 °F 60.1 °F 30.11 in Calm     86% 0.00 in SCT
02:00 63.9 °F 59.7 °F 30.11 in Calm     86% 0.00 in SCT
02:15 63.4 °F 59.1 °F 30.11 in Calm   1.0 mph 86% 0.00 in SCT
02:30 62.9 °F 59.0 °F 30.10 in Calm     87% 0.00 in SCT
02:45 62.5 °F 58.6 °F 30.10 in Calm     87% 0.00 in SCT
03:00 62.2 °F 58.6 °F 30.09 in Calm     88% 0.00 in SCT
03:15 61.8 °F 58.2 °F 30.09 in Calm     88% 0.00 in SCT
03:30 61.5 °F 57.9 °F 30.09 in Calm     88% 0.00 in SCT
03:45 60.7 °F 57.7 °F 30.09 in Calm     90% 0.00 in SCT
04:00 60.7 °F 57.7 °F 30.10 in Calm     90% 0.00 in SCT
04:15 60.7 °F 57.7 °F 30.10 in Calm     90% 0.00 in SCT
04:30 60.7 °F 57.7 °F 30.10 in Calm     90% 0.00 in SCT
04:45 60.7 °F 57.7 °F 30.11 in Calm     90% 0.00 in SCT
05:00 60.7 °F 57.7 °F 30.12 in Calm     90% 0.00 in SCT
05:15 60.7 °F 57.7 °F 30.12 in Calm     90% 0.00 in SCT
05:30 60.7 °F 57.7 °F 30.12 in Calm     90% 0.00 in SCT
05:45 60.7 °F 57.7 °F 30.12 in Calm     90% 0.00 in SCT
06:00 60.7 °F 57.7 °F 30.12 in Calm     90% 0.00 in SCT
06:15 60.7 °F 57.7 °F 30.12 in Calm     90% 0.00 in SCT
06:30 60.7 °F 57.7 °F 30.13 in Calm     90% 0.00 in SCT
06:45 60.7 °F 57.7 °F 30.13 in Calm     90% 0.00 in SCT
07:00 60.7 °F 57.7 °F 30.14 in Calm     90% 0.00 in SCT
07:15 60.7 °F 57.7 °F 30.14 in Calm     90% 0.00 in SCT
07:30 60.7 °F 57.7 °F 30.15 in Calm     90% 0.00 in SCT
07:45 60.7 °F 57.7 °F 30.16 in Calm     90% 0.00 in SCT
08:00 60.7 °F 57.7 °F 30.17 in Calm     90% 0.00 in SCT
08:15 60.7 °F 57.7 °F 30.17 in Calm     90% 0.00 in SCT
08:30 60.7 °F 57.7 °F 30.17 in Calm     90% 0.00 in SCT
08:45 63.0 °F 59.7 °F 30.18 in Calm     89% 0.00 in SCT
09:00 63.8 °F 59.8 °F 30.18 in Calm     87% 0.00 in SCT
09:15 64.8 °F 60.8 °F 30.18 in Calm     87% 0.00 in SCT
09:30 65.5 °F 60.9 °F 30.18 in Calm     85% 0.00 in SCT
09:45 66.6 °F 61.2 °F 30.19 in Calm     83% 0.00 in SCT
10:00 68.3 °F 61.2 °F 30.19 in Calm     78% 0.00 in SCT
10:15 71.0 °F 61.9 °F 30.18 in Calm   1.0 mph 73% 0.00 in SCT
10:30 70.7 °F 61.2 °F 30.19 in Calm   3.0 mph 72% 0.00 in SCT
10:45 71.0 °F 61.5 °F 30.19 in Calm   3.0 mph 72% 0.00 in SCT
11:00 72.3 °F 61.6 °F 30.19 in WNW 1.0 mph 3.0 mph 69% 0.00 in SCT
11:15 74.3 °F 62.6 °F 30.19 in Calm   1.0 mph 67% 0.00 in SCT
11:30 75.9 °F 62.9 °F 30.19 in Calm   2.0 mph 64% 0.00 in SCT
11:45 76.3 °F 62.3 °F 30.20 in Calm   3.0 mph 62% 0.00 in SCT
12:00 77.1 °F 62.6 °F 30.19 in Calm   3.0 mph 61% 0.00 in SCT
12:15 78.5 °F 62.5 °F 30.19 in Calm   3.0 mph 58% 0.00 in SCT
12:30 79.2 °F 62.1 °F 30.19 in Calm   3.0 mph 56% 0.00 in SCT
12:45 79.7 °F 63.1 °F 30.19 in NE 1.0 mph 3.0 mph 57% 0.00 in SCT
13:00 80.6 °F 61.3 °F 30.18 in Calm   2.0 mph 52% 0.00 in SCT
13:15 78.1 °F 60.6 °F 30.18 in Calm     55% 0.00 in SCT
13:30 76.7 °F 61.8 °F 30.18 in Calm     60% 0.00 in SCT
13:45 75.0 °F 61.1 °F 30.18 in Calm     62% 0.00 in SCT
14:00 74.0 °F 63.6 °F 30.17 in Calm     70% 0.00 in SCT
14:15 73.7 °F 62.9 °F 30.17 in Calm   1.0 mph 69% 0.00 in SCT
14:30 73.1 °F 62.3 °F 30.17 in Calm   2.0 mph 69% 0.00 in SCT
14:45 74.1 °F 64.1 °F 30.16 in Calm   1.0 mph 71% 0.00 in SCT
15:00 74.9 °F 62.8 °F 30.16 in Calm   2.0 mph 66% 0.00 in SCT
15:15 74.9 °F 62.4 °F 30.16 in WNW 2.0 mph 5.0 mph 65% 0.00 in SCT
15:30 74.4 °F 62.3 °F 30.16 in Calm   2.0 mph 66% 0.00 in SCT
15:45 73.9 °F 62.7 °F 30.15 in Calm   3.0 mph 68% 0.00 in SCT
16:00 75.9 °F 62.8 °F 30.15 in Calm   3.0 mph 64% 0.00 in SCT
16:15 76.1 °F 62.6 °F 30.14 in Calm   3.0 mph 63% 0.00 in SCT
16:30 75.7 °F 62.6 °F 30.14 in West 1.0 mph 5.0 mph 64% 0.00 in SCT
16:45 75.9 °F 63.3 °F 30.13 in Calm   3.0 mph 65% 0.00 in SCT
17:00 75.3 °F 62.7 °F 30.12 in West 1.0 mph 5.0 mph 65% 0.00 in SCT
17:15 75.0 °F 62.8 °F 30.13 in West 1.0 mph 5.0 mph 66% 0.00 in SCT
17:30 74.8 °F 61.8 °F 30.13 in WNW 1.0 mph 3.0 mph 64% 0.00 in SCT
17:45 74.4 °F 62.3 °F 30.13 in Calm   1.0 mph 66% 0.00 in SCT
18:00 74.1 °F 62.9 °F 30.13 in Calm   2.0 mph 68% 0.00 in SCT
18:15 73.7 °F 62.5 °F 30.14 in Calm   2.0 mph 68% 0.00 in SCT
18:30 73.4 °F 62.6 °F 30.14 in Calm   5.0 mph 69% 0.00 in SCT
18:45 73.2 °F 62.0 °F 30.15 in Calm   2.0 mph 68% 0.00 in SCT
19:00 72.6 °F 61.8 °F 30.15 in West 1.0 mph 2.0 mph 69% 0.00 in SCT
19:15 72.2 °F 62.3 °F 30.16 in Calm   5.0 mph 71% 0.00 in SCT
19:30 71.9 °F 62.4 °F 30.17 in Calm   3.0 mph 72% 0.00 in SCT
19:45 71.2 °F 61.7 °F 30.17 in WNW 1.0 mph 5.0 mph 72% 0.00 in SCT
20:00 70.2 °F 61.1 °F 30.17 in West 1.0 mph 5.0 mph 73% 0.00 in SCT
20:15 69.2 °F 60.6 °F 30.18 in Calm   3.0 mph 74% 0.00 in SCT
20:30 68.6 °F 60.4 °F 30.18 in Calm   2.0 mph 75% 0.00 in SCT
20:45 68.2 °F 60.0 °F 30.18 in WNW 2.0 mph 3.0 mph 75% 0.00 in SCT
21:00 67.9 °F 60.0 °F 30.19 in Calm   1.0 mph 76% 0.00 in SCT
21:15 67.5 °F 59.7 °F 30.19 in WNW 1.0 mph 3.0 mph 76% 0.00 in SCT
21:30 67.1 °F 59.3 °F 30.20 in Calm   3.0 mph 76% 0.00 in SCT
21:45 66.8 °F 59.4 °F 30.20 in Calm   5.0 mph 77% 0.00 in SCT
22:00 66.6 °F 59.5 °F 30.21 in Calm   1.0 mph 78% 0.00 in SCT
22:15 66.5 °F 59.5 °F 30.22 in Calm   3.0 mph 78% 0.00 in SCT
22:30 66.3 °F 59.2 °F 30.23 in West 1.0 mph 2.0 mph 78% 0.00 in SCT
22:45 66.0 °F 58.6 °F 30.23 in West 1.0 mph 2.0 mph 77% 0.00 in SCT
23:00 65.6 °F 58.6 °F 30.24 in WNW 1.0 mph 2.0 mph 78% 0.00 in SCT
23:15 65.4 °F 58.4 °F 30.24 in WNW 1.0 mph 3.0 mph 78% 0.00 in SCT
23:30 65.2 °F 58.5 °F 30.25 in Calm   2.0 mph 79% 0.00 in SCT
23:45 65.0 °F 58.7 °F 30.25 in West 1.0 mph 5.0 mph 80% 0.00 in SCT
Piedmont Bend
Compliments of Weather Underground - 4 mb